Airport View

Enter AWOS ICAO identifier for current METAR.

ex. KFNL

KLHW 191927Z 15007KT 10SM SCT013 SCT019 BKN032 BKN041 28/24 A3004 RMK AO2A LTG DSNT NW RAE1856 SLP175 $

19 Aug 2019 20:18

Other Area AWOS: KSVN - KSAV - KCWV - KJES

TAF KSVN 192000Z 1920/2102 15006KT 9000 -SHRA VCTS BKN025CB QNH3003INS BECMG 1923/1924 19006KT 9999 NSW SCT030 QNH3005INS BECMG 2004/2005 20006KT 9000 -SHRA SCT012 QNH3010INS BECMG 2007/2008 22006KT 8000 BR FEW012 QNH3009INS BECMG 2013/2014 23006KT 9999 NSW FEW020 QNH3013INS BECMG 2016/2017 20009KT 9000 -SHRA FEW035 QNH3013INS TEMPO 2018/2022 VRB20G30KT 9000 -TSRA FEW035CB SCT050 BKN100 BECMG 2022/2023 17006KT 9999 NSW SCT025 QNH3010INS TX31/2018Z TN25/2010Z